createdAt,value
2019-06-01T00:00:46.256Z,11.70
2019-06-01T00:03:17.641Z,11.45
2019-06-01T00:05:47.113Z,11.38
2019-06-01T00:08:16.391Z,11.18
2019-06-01T00:10:45.785Z,12.65
2019-06-01T00:13:15.156Z,12.78
2019-06-01T00:15:44.508Z,11.57
2019-06-01T00:18:13.883Z,14.85
2019-06-01T00:20:44.298Z,13.48
2019-06-01T00:23:13.670Z,13.03
2019-06-01T00:25:43.101Z,12.50
2019-06-01T00:28:12.460Z,12.73
2019-06-01T00:30:41.909Z,13.00
2019-06-01T00:33:11.205Z,13.78
2019-06-01T00:35:41.336Z,12.78
2019-06-01T00:38:10.747Z,14.05
2019-06-01T00:40:40.212Z,13.70
2019-06-01T00:43:09.561Z,13.03
2019-06-01T00:45:38.875Z,14.83
2019-06-01T00:48:10.130Z,13.95
2019-06-01T00:50:39.679Z,14.78
2019-06-01T00:53:09.137Z,14.40
2019-06-01T00:55:38.519Z,14.68
2019-06-01T00:58:07.807Z,14.75
2019-06-01T01:00:43.629Z,13.65
2019-06-01T01:03:08.160Z,14.13
2019-06-01T01:05:37.477Z,14.55
2019-06-01T01:08:06.975Z,14.78
2019-06-01T01:10:36.342Z,14.55
2019-06-01T01:13:09.982Z,15.65
2019-06-01T01:15:39.378Z,15.50
2019-06-01T01:18:09.339Z,16.23
2019-06-01T01:20:38.882Z,15.03
2019-06-01T01:23:08.542Z,16.52
2019-06-01T01:25:37.964Z,14.68
2019-06-01T01:28:07.281Z,14.15
2019-06-01T01:30:36.655Z,14.85
2019-06-01T01:33:06.039Z,13.90
2019-06-01T01:35:35.361Z,15.65
2019-06-01T01:38:05.014Z,14.50
2019-06-01T01:40:34.338Z,15.72
2019-06-01T01:43:03.654Z,16.65
2019-06-01T01:45:32.995Z,16.42
2019-06-01T01:48:02.331Z,16.55
2019-06-01T01:50:32.614Z,16.85
2019-06-01T01:53:03.333Z,15.85
2019-06-01T01:55:32.869Z,15.65
2019-06-01T01:58:02.177Z,16.70
2019-06-01T02:00:42.729Z,17.20
2019-06-01T02:03:12.164Z,18.95
2019-06-01T02:05:41.765Z,17.80
2019-06-01T02:08:11.217Z,17.95
2019-06-01T02:10:40.615Z,17.48
2019-06-01T02:13:09.954Z,17.85
2019-06-01T02:15:40.500Z,18.57
2019-06-01T02:18:09.789Z,20.37
2019-06-01T02:20:39.256Z,18.35
2019-06-01T02:23:08.617Z,19.20
2019-06-01T02:25:37.989Z,18.73
2019-06-01T02:28:07.473Z,18.70
2019-06-01T02:30:36.868Z,19.02
2019-06-01T02:33:06.137Z,18.32
2019-06-01T02:35:35.514Z,18.57
2019-06-01T02:38:05.716Z,17.98
2019-06-01T02:40:35.692Z,19.20
2019-06-01T02:43:06.781Z,18.48
2019-06-01T02:45:36.547Z,19.60
2019-06-01T02:48:06.573Z,20.62
2019-06-01T02:50:36.147Z,20.10
2019-06-01T02:53:07.180Z,19.85
2019-06-01T02:55:36.455Z,20.35
2019-06-01T02:58:06.672Z,20.43
2019-06-01T03:00:48.522Z,20.57
2019-06-01T03:03:18.473Z,20.15
2019-06-01T03:05:48.902Z,21.73
2019-06-01T03:08:19.582Z,19.87
2019-06-01T03:10:50.383Z,19.98
2019-06-01T03:13:20.365Z,20.48
2019-06-01T03:15:52.155Z,20.50
2019-06-01T03:18:22.508Z,20.50
2019-06-01T03:20:52.727Z,20.55
2019-06-01T03:23:24.308Z,21.07
2019-06-01T03:25:54.365Z,22.55
2019-06-01T03:28:25.374Z,22.85
2019-06-01T03:30:54.755Z,21.07
2019-06-01T03:33:24.037Z,22.65
2019-06-01T03:35:55.089Z,22.87
2019-06-01T03:38:24.709Z,22.17
2019-06-01T03:40:54.090Z,21.97
2019-06-01T03:43:23.722Z,23.75
2019-06-01T03:45:53.014Z,21.95
2019-06-01T03:48:22.333Z,22.15
2019-06-01T03:50:51.941Z,23.20
2019-06-01T03:53:21.243Z,21.97
2019-06-01T03:55:50.551Z,22.20
2019-06-01T03:58:21.479Z,22.35
2019-06-01T04:00:50.788Z,23.00
2019-06-01T04:03:20.079Z,23.52
2019-06-01T04:05:49.457Z,23.80
2019-06-01T04:08:18.834Z,24.52
2019-06-01T04:10:48.155Z,24.32
2019-06-01T04:13:17.434Z,24.23
2019-06-01T04:15:46.734Z,23.85
2019-06-01T04:18:16.164Z,23.67
2019-06-01T04:20:45.524Z,24.70
2019-06-01T04:23:14.877Z,22.93
2019-06-01T04:25:44.285Z,24.10
2019-06-01T04:28:13.660Z,23.80
2019-06-01T04:30:42.987Z,24.02
2019-06-01T04:33:13.251Z,23.55
2019-06-01T04:35:43.759Z,23.62
2019-06-01T04:38:13.477Z,22.32
2019-06-01T04:40:42.847Z,22.25
2019-06-01T04:43:12.276Z,21.73
2019-06-01T04:45:41.833Z,22.30
2019-06-01T04:48:11.142Z,21.68
2019-06-01T04:50:40.463Z,20.65
2019-06-01T04:53:11.808Z,20.15
2019-06-01T04:55:40.807Z,20.12
2019-06-01T04:58:11.135Z,19.12
2019-06-01T05:00:40.641Z,17.80
2019-06-01T05:03:10.829Z,17.90
2019-06-01T05:05:41.226Z,17.77
2019-06-01T05:08:12.569Z,17.23
2019-06-01T05:10:41.734Z,15.80
2019-06-01T05:13:11.520Z,15.90
2019-06-01T05:15:40.830Z,15.48
2019-06-01T05:18:10.132Z,14.45
2019-06-01T05:20:39.514Z,13.40
2019-06-01T05:23:10.571Z,11.83
2019-06-01T05:25:40.249Z,11.43
2019-06-01T05:28:09.561Z,11.53
2019-06-01T05:30:38.847Z,11.65
2019-06-01T05:33:22.439Z,10.78
2019-06-01T05:35:39.159Z,11.65
2019-06-01T05:38:08.471Z,11.03
2019-06-01T05:40:38.007Z,11.33
2019-06-01T05:43:10.805Z,11.48
2019-06-01T05:45:38.442Z,11.97
2019-06-01T05:48:07.798Z,12.60
2019-06-01T05:50:38.139Z,12.98
2019-06-01T05:53:07.525Z,14.00
2019-06-01T05:55:36.825Z,14.58
2019-06-01T05:58:06.125Z,14.90
2019-06-01T06:00:40.768Z,15.95
2019-06-01T06:03:12.888Z,15.68
2019-06-01T06:05:41.228Z,14.68
2019-06-01T06:08:12.538Z,16.27
2019-06-01T06:10:41.536Z,16.07
2019-06-01T06:13:11.201Z,15.88
2019-06-01T06:15:40.602Z,16.40
2019-06-01T06:18:10.173Z,15.88
2019-06-01T06:20:39.481Z,16.85
2019-06-01T06:23:08.815Z,16.00
2019-06-01T06:25:40.959Z,15.93
2019-06-01T06:28:09.205Z,16.65
2019-06-01T06:30:39.755Z,15.70
2019-06-01T06:33:09.044Z,15.48
2019-06-01T06:35:38.431Z,15.38
2019-06-01T06:38:07.860Z,15.32
2019-06-01T06:40:37.191Z,15.38
2019-06-01T06:43:18.680Z,15.03
2019-06-01T06:45:37.817Z,13.60
2019-06-01T06:48:07.120Z,13.60
2019-06-01T06:50:36.494Z,12.80
2019-06-01T06:53:06.125Z,13.93
2019-06-01T06:55:36.044Z,12.75
2019-06-01T06:58:05.491Z,12.30
2019-06-01T07:00:34.809Z,11.63
2019-06-01T07:03:04.123Z,9.88
2019-06-01T07:05:33.429Z,9.55
2019-06-01T07:08:02.804Z,9.58
2019-06-01T07:10:32.112Z,9.58
2019-06-01T07:13:01.410Z,10.50
2019-06-01T07:15:31.765Z,9.48
2019-06-01T07:18:01.136Z,10.45
2019-06-01T07:20:30.399Z,11.60
2019-06-01T07:22:59.720Z,10.55
2019-06-01T07:25:29.085Z,10.58
2019-06-01T07:27:58.388Z,11.35
2019-06-01T07:30:28.464Z,11.45
2019-06-01T07:32:57.813Z,11.15
2019-06-01T07:35:28.371Z,12.28
2019-06-01T07:37:57.869Z,12.07
2019-06-01T07:40:27.195Z,11.90
2019-06-01T07:42:56.522Z,11.75
2019-06-01T07:45:26.926Z,12.00
2019-06-01T07:47:56.365Z,11.20
2019-06-01T07:50:25.965Z,10.38
2019-06-01T07:52:55.358Z,11.18
2019-06-01T07:55:25.489Z,11.22
2019-06-01T07:57:54.987Z,11.78
2019-06-01T08:00:25.611Z,11.93
2019-06-01T08:02:55.494Z,9.28
2019-06-01T08:05:26.435Z,9.40
2019-06-01T08:07:55.793Z,9.80
2019-06-01T08:10:26.521Z,9.98
2019-06-01T08:12:57.139Z,9.53
2019-06-01T08:15:28.045Z,9.00
2019-06-01T08:17:58.686Z,9.13
2019-06-01T08:20:28.625Z,10.23
2019-06-01T08:22:59.300Z,10.32
2019-06-01T08:25:28.724Z,9.58
2019-06-01T08:27:58.348Z,7.60
2019-06-01T08:30:28.623Z,7.85
2019-06-01T08:32:58.045Z,7.50
2019-06-01T08:35:27.385Z,7.20
2019-06-01T08:37:56.670Z,6.22
2019-06-01T08:40:27.303Z,7.30
2019-06-01T08:42:56.775Z,6.60
2019-06-01T08:45:26.068Z,6.70
2019-06-01T08:47:55.597Z,6.87
2019-06-01T08:50:25.707Z,6.67
2019-06-01T08:52:56.043Z,5.92
2019-06-01T08:55:26.087Z,7.47
2019-06-01T08:57:55.506Z,8.00
2019-06-01T09:00:26.225Z,7.87
2019-06-01T09:02:55.740Z,5.80
2019-06-01T09:05:26.825Z,6.10
2019-06-01T09:07:56.078Z,6.80
2019-06-01T09:10:25.394Z,6.55
2019-06-01T09:12:54.694Z,6.90
2019-06-01T09:15:25.477Z,7.03
2019-06-01T09:17:54.930Z,7.05
2019-06-01T09:20:25.412Z,7.67
2019-06-01T09:22:56.484Z,7.47
2019-06-01T09:25:25.797Z,8.25
2019-06-01T09:27:55.276Z,7.97
2019-06-01T09:30:25.889Z,7.95
2019-06-01T09:32:55.251Z,8.20
2019-06-01T09:35:46.480Z,7.70
2019-06-01T09:40:27.318Z,6.33
2019-06-01T09:42:56.555Z,6.42
2019-06-01T09:45:25.866Z,5.92
2019-06-01T09:47:55.383Z,6.45
2019-06-01T09:50:24.716Z,5.22
2019-06-01T09:52:54.032Z,5.72
2019-06-01T09:55:23.326Z,5.83
2019-06-01T09:57:52.616Z,5.60
2019-06-01T10:00:22.079Z,5.67
2019-06-01T10:02:51.401Z,5.85
2019-06-01T10:05:20.763Z,6.33
2019-06-01T10:07:50.034Z,5.90
2019-06-01T10:10:19.477Z,5.65
2019-06-01T10:12:48.943Z,5.20
2019-06-01T10:15:18.254Z,5.33
2019-06-01T10:17:47.530Z,5.72
2019-06-01T10:20:17.280Z,5.00
2019-06-01T10:22:46.589Z,5.10
2019-06-01T10:25:16.145Z,5.22
2019-06-01T10:27:45.445Z,5.30
2019-06-01T10:30:16.379Z,6.70
2019-06-01T10:32:45.838Z,6.03
2019-06-01T10:35:15.447Z,5.60
2019-06-01T10:37:44.771Z,6.58
2019-06-01T10:40:14.377Z,6.17
2019-06-01T10:42:43.667Z,6.00
2019-06-01T10:45:13.265Z,5.55
2019-06-01T10:47:42.593Z,5.60
2019-06-01T10:50:13.052Z,5.15
2019-06-01T10:52:42.693Z,5.12
2019-06-01T10:55:12.314Z,4.70
2019-06-01T10:57:42.812Z,4.45
2019-06-01T11:00:12.939Z,4.72
2019-06-01T11:02:43.330Z,4.67
2019-06-01T11:05:13.053Z,4.90
2019-06-01T11:07:43.116Z,4.05
2019-06-01T11:10:13.129Z,5.00
2019-06-01T11:12:43.266Z,5.35
2019-06-01T11:15:12.829Z,4.45
2019-06-01T11:17:43.217Z,5.50
2019-06-01T11:22:43.744Z,4.80
2019-06-01T11:25:13.271Z,5.03
2019-06-01T11:27:44.038Z,4.47
2019-06-01T11:30:13.950Z,4.33
2019-06-01T11:32:44.940Z,5.08
2019-06-01T11:35:14.764Z,6.12
2019-06-01T11:37:44.555Z,4.40
2019-06-01T11:40:14.191Z,4.92
2019-06-01T11:42:44.950Z,3.90
2019-06-01T11:45:14.607Z,5.03
2019-06-01T11:47:44.845Z,4.80
2019-06-01T11:50:15.772Z,5.30
2019-06-01T11:52:45.508Z,5.40
2019-06-01T11:55:14.936Z,5.25
2019-06-01T11:57:44.303Z,5.92
2019-06-01T12:00:14.848Z,6.67
2019-06-01T12:02:44.188Z,6.37
2019-06-01T12:05:13.893Z,5.80
2019-06-01T12:07:43.905Z,6.20
2019-06-01T12:10:16.685Z,6.17
2019-06-01T12:12:46.507Z,7.08
2019-06-01T12:15:15.860Z,7.40
2019-06-01T12:17:45.302Z,6.40
2019-06-01T12:20:14.834Z,6.87
2019-06-01T12:22:45.144Z,5.30
2019-06-01T12:25:14.837Z,4.83
2019-06-01T12:27:44.139Z,5.33
2019-06-01T12:30:13.920Z,4.92
2019-06-01T12:32:44.069Z,5.78
2019-06-01T12:35:13.897Z,5.62
2019-06-01T12:38:02.061Z,5.97
2019-06-01T12:40:16.085Z,4.45
2019-06-01T12:42:45.908Z,4.28
2019-06-01T12:45:22.836Z,4.47
2019-06-01T12:47:55.224Z,4.75
2019-06-01T12:50:22.124Z,4.17
2019-06-01T12:52:52.767Z,4.70
2019-06-01T12:55:22.171Z,4.37
2019-06-01T12:57:52.556Z,4.40
2019-06-01T13:00:22.035Z,3.75
2019-06-01T13:03:03.654Z,4.22
2019-06-01T13:05:23.638Z,4.70
2019-06-01T13:08:01.830Z,4.12
2019-06-01T13:10:24.123Z,3.85
2019-06-01T13:12:53.594Z,4.10
2019-06-01T13:15:23.958Z,4.00
2019-06-01T13:17:53.247Z,4.20
2019-06-01T13:20:22.535Z,5.00
2019-06-01T13:22:51.976Z,4.50
2019-06-01T13:25:21.469Z,5.72
2019-06-01T13:27:50.763Z,7.03
2019-06-01T13:30:21.283Z,5.90
2019-06-01T13:32:50.820Z,6.35
2019-06-01T13:35:20.336Z,7.00
2019-06-01T13:37:50.811Z,6.85
2019-06-01T13:40:20.390Z,6.03
2019-06-01T13:42:49.694Z,7.28
2019-06-01T13:45:19.184Z,6.55
2019-06-01T13:47:49.765Z,8.20
2019-06-01T13:50:19.323Z,7.75
2019-06-01T13:52:49.937Z,6.92
2019-06-01T13:55:19.280Z,8.38
2019-06-01T13:57:48.569Z,7.05
2019-06-01T14:00:29.872Z,6.90
2019-06-01T14:02:53.683Z,6.37
2019-06-01T14:05:20.069Z,7.20
2019-06-01T14:07:49.597Z,7.00
2019-06-01T14:10:20.087Z,7.70
2019-06-01T14:12:49.492Z,6.95
2019-06-01T14:15:18.851Z,7.50
2019-06-01T14:17:48.149Z,6.25
2019-06-01T14:20:17.776Z,6.65
2019-06-01T14:22:47.657Z,6.92
2019-06-01T14:25:17.697Z,6.70
2019-06-01T14:27:48.137Z,5.83
2019-06-01T14:30:17.691Z,6.20
2019-06-01T14:32:48.755Z,6.10
2019-06-01T14:35:18.169Z,6.15
2019-06-01T14:37:48.756Z,6.55
2019-06-01T14:40:18.865Z,7.53
2019-06-01T14:42:49.040Z,7.45
2019-06-01T14:45:20.138Z,6.10
2019-06-01T14:47:49.500Z,5.83
2019-06-01T14:50:18.808Z,6.40
2019-06-01T14:52:49.513Z,6.20
2019-06-01T14:55:18.959Z,7.33
2019-06-01T14:57:48.601Z,6.80
2019-06-01T15:00:19.406Z,6.20
2019-06-01T15:02:49.941Z,6.90
2019-06-01T15:05:19.401Z,8.00
2019-06-01T15:07:49.032Z,7.55
2019-06-01T15:10:19.670Z,10.28
2019-06-01T15:12:54.566Z,7.28
2019-06-01T15:15:20.531Z,7.30
2019-06-01T15:17:49.834Z,6.60
2019-06-01T15:20:19.246Z,7.72
2019-06-01T15:22:49.922Z,7.55
2019-06-01T15:25:19.352Z,8.00
2019-06-01T15:27:48.860Z,7.60
2019-06-01T15:30:18.624Z,7.70
2019-06-01T15:32:47.896Z,7.95
2019-06-01T15:35:17.260Z,8.93
2019-06-01T15:37:46.559Z,9.43
2019-06-01T15:40:16.239Z,8.38
2019-06-01T15:42:45.790Z,8.43
2019-06-01T15:45:15.441Z,8.48
2019-06-01T15:47:44.773Z,9.95
2019-06-01T15:50:15.941Z,9.55
2019-06-01T15:52:45.242Z,11.65
2019-06-01T15:55:14.731Z,8.85
2019-06-01T15:57:44.083Z,8.70
2019-06-01T16:00:13.765Z,9.10
2019-06-01T16:02:43.115Z,9.00
2019-06-01T16:05:12.866Z,11.10
2019-06-01T16:07:42.210Z,9.40
2019-06-01T16:10:11.745Z,8.80
2019-06-01T16:12:41.189Z,10.08
2019-06-01T16:15:10.937Z,9.75
2019-06-01T16:17:40.398Z,9.70
2019-06-01T16:20:11.880Z,8.73
2019-06-01T16:22:41.236Z,8.57
2019-06-01T16:25:10.881Z,9.98
2019-06-01T16:27:40.173Z,8.93
2019-06-01T16:30:11.198Z,8.65
2019-06-01T16:32:40.488Z,8.73
2019-06-01T16:35:09.789Z,8.08
2019-06-01T16:37:39.074Z,9.60
2019-06-01T16:40:10.624Z,8.40
2019-06-01T16:42:40.386Z,8.85
2019-06-01T16:45:10.219Z,10.90
2019-06-01T16:47:39.572Z,11.00
2019-06-01T16:50:09.683Z,9.98
2019-06-01T16:52:39.060Z,9.88
2019-06-01T16:55:09.419Z,9.95
2019-06-01T16:57:38.783Z,10.90
2019-06-01T17:00:10.021Z,9.20
2019-06-01T17:02:39.568Z,9.90
2019-06-01T17:05:09.350Z,10.38
2019-06-01T17:07:38.777Z,9.63
2019-06-01T17:10:25.016Z,8.85
2019-06-01T17:12:43.182Z,9.60
2019-06-01T17:15:11.319Z,9.90
2019-06-01T17:17:40.758Z,9.05
2019-06-01T17:20:38.248Z,8.85
2019-06-01T17:23:24.161Z,8.93
2019-06-01T17:25:38.757Z,9.20
2019-06-01T17:28:09.247Z,8.88
2019-06-01T17:30:38.665Z,9.13
2019-06-01T17:33:08.598Z,9.25
2019-06-01T17:35:38.042Z,9.90
2019-06-01T17:38:07.595Z,8.93
2019-06-01T17:40:41.669Z,9.38
2019-06-01T17:43:08.910Z,9.88
2019-06-01T17:45:38.519Z,10.15
2019-06-01T17:48:24.307Z,10.30
2019-06-01T17:50:39.030Z,9.95
2019-06-01T17:53:08.908Z,10.18
2019-06-01T17:55:40.036Z,9.28
2019-06-01T17:58:12.198Z,8.50
2019-06-01T18:00:41.753Z,8.68
2019-06-01T18:03:12.087Z,8.33
2019-06-01T18:05:43.046Z,8.98
2019-06-01T18:08:12.962Z,10.28
2019-06-01T18:10:53.390Z,9.50
2019-06-01T18:13:13.706Z,9.88
2019-06-01T18:15:43.010Z,8.98
2019-06-01T18:18:12.964Z,8.73
2019-06-01T18:20:43.657Z,9.38
2019-06-01T18:23:13.508Z,8.55
2019-06-01T18:25:44.544Z,7.50
2019-06-01T18:28:19.020Z,6.72
2019-06-01T18:30:45.020Z,6.90
2019-06-01T18:33:14.486Z,6.40
2019-06-01T18:35:43.815Z,7.20
2019-06-01T18:38:14.723Z,7.15
2019-06-01T18:40:44.288Z,6.58
2019-06-01T18:43:17.117Z,6.40
2019-06-01T18:45:47.486Z,6.60
2019-06-01T18:48:17.213Z,7.10
2019-06-01T18:50:46.994Z,6.22
2019-06-01T18:53:16.397Z,7.20
2019-06-01T18:55:45.671Z,8.03
2019-06-01T18:58:15.048Z,7.15
2019-06-01T19:00:45.715Z,7.60
2019-06-01T19:03:15.530Z,7.65
2019-06-01T19:05:46.121Z,7.35
2019-06-01T19:08:16.175Z,7.25
2019-06-01T19:10:47.960Z,7.67
2019-06-01T19:13:18.124Z,7.42
2019-06-01T19:15:47.419Z,7.55
2019-06-01T19:18:17.561Z,8.10
2019-06-01T19:20:46.962Z,8.43
2019-06-01T19:23:21.384Z,8.35
2019-06-01T19:25:48.588Z,8.50
2019-06-01T19:28:18.047Z,8.60
2019-06-01T19:30:47.456Z,8.70
2019-06-01T19:33:19.487Z,8.80
2019-06-01T19:35:49.456Z,9.18
2019-06-01T19:38:20.129Z,9.60
2019-06-01T19:40:51.171Z,9.40
2019-06-01T19:43:20.943Z,10.00
2019-06-01T19:45:51.105Z,10.35
2019-06-01T19:48:20.594Z,9.90
2019-06-01T19:50:51.765Z,10.35
2019-06-01T19:53:21.141Z,9.58
2019-06-01T19:55:51.594Z,10.25
2019-06-01T19:58:22.258Z,9.30
2019-06-01T20:00:52.931Z,10.18
2019-06-01T20:03:23.872Z,10.23
2019-06-01T20:05:53.286Z,9.93
2019-06-01T20:08:22.753Z,9.65
2019-06-01T20:10:52.041Z,11.35
2019-06-01T20:13:21.526Z,11.57
2019-06-01T20:15:50.841Z,12.03
2019-06-01T20:18:20.142Z,12.35
2019-06-01T20:20:50.019Z,13.03
2019-06-01T20:23:19.631Z,12.45
2019-06-01T20:25:49.080Z,12.53
2019-06-01T20:28:19.547Z,11.10
2019-06-01T20:30:49.431Z,12.18
2019-06-01T20:33:20.307Z,12.33
2019-06-01T20:35:49.792Z,10.43
2019-06-01T20:38:20.542Z,13.00
2019-06-01T20:40:50.207Z,11.50
2019-06-01T20:43:20.817Z,12.85
2019-06-01T20:45:50.479Z,12.10
2019-06-01T20:48:21.051Z,13.48
2019-06-01T20:50:52.074Z,13.00
2019-06-01T20:53:21.463Z,13.53
2019-06-01T20:55:50.770Z,13.20
2019-06-01T20:58:22.898Z,14.23
2019-06-01T21:00:51.149Z,13.68
2019-06-01T21:03:21.813Z,13.83
2019-06-01T21:05:51.234Z,13.28
2019-06-01T21:08:22.260Z,12.23
2019-06-01T21:10:52.032Z,13.62
2019-06-01T21:13:22.283Z,12.13
2019-06-01T21:15:51.719Z,13.98
2019-06-01T21:18:22.331Z,12.33
2019-06-01T21:20:52.105Z,12.88
2019-06-01T21:23:21.418Z,13.68
2019-06-01T21:25:52.871Z,13.20
2019-06-01T21:28:23.649Z,14.07
2019-06-01T21:30:53.172Z,13.38
2019-06-01T21:33:26.642Z,13.13
2019-06-01T21:35:53.529Z,14.05
2019-06-01T21:38:23.665Z,14.28
2019-06-01T21:40:53.020Z,14.95
2019-06-01T21:43:29.744Z,14.60
2019-06-01T21:45:53.419Z,16.17
2019-06-01T21:48:23.975Z,16.25
2019-06-01T21:50:53.655Z,17.57
2019-06-01T21:53:22.930Z,17.30
2019-06-01T21:55:53.921Z,17.85
2019-06-01T21:58:24.453Z,15.55
2019-06-01T22:00:54.977Z,15.80
2019-06-01T22:03:25.637Z,18.15
2019-06-01T22:05:55.268Z,18.55
2019-06-01T22:08:25.793Z,19.20
2019-06-01T22:10:55.295Z,19.10
2019-06-01T22:13:27.108Z,19.67
2019-06-01T22:15:55.620Z,19.25
2019-06-01T22:18:25.837Z,18.80
2019-06-01T22:20:56.374Z,18.70
2019-06-01T22:23:26.101Z,18.73
2019-06-01T22:25:55.569Z,20.40
2019-06-01T22:28:24.856Z,19.80
2019-06-01T22:30:54.258Z,20.15
2019-06-01T22:33:24.563Z,20.57
2019-06-01T22:35:53.916Z,20.23
2019-06-01T22:38:23.730Z,20.77
2019-06-01T22:40:53.180Z,20.27
2019-06-01T22:43:39.283Z,20.95
2019-06-01T22:45:53.679Z,20.65
2019-06-01T22:48:22.991Z,21.05
2019-06-01T22:50:52.274Z,22.10
2019-06-01T22:53:22.372Z,21.33
2019-06-01T22:55:51.694Z,22.62
2019-06-01T22:58:21.316Z,22.77
2019-06-01T23:00:50.691Z,21.60
2019-06-01T23:03:20.109Z,20.80
2019-06-01T23:05:49.495Z,20.27
2019-06-01T23:08:18.961Z,20.37
2019-06-01T23:10:48.269Z,20.85
2019-06-01T23:13:17.552Z,22.65
2019-06-01T23:15:46.856Z,22.65
2019-06-01T23:18:16.277Z,23.20
2019-06-01T23:20:45.753Z,24.05
2019-06-01T23:23:15.036Z,23.47
2019-06-01T23:25:44.338Z,24.12
2019-06-01T23:28:13.637Z,23.90
2019-06-01T23:30:42.967Z,23.77
2019-06-01T23:33:12.254Z,24.10
2019-06-01T23:35:41.579Z,24.52
2019-06-01T23:38:10.904Z,22.50
2019-06-01T23:40:40.182Z,24.32
2019-06-01T23:43:09.525Z,24.82
2019-06-01T23:45:38.826Z,22.85
2019-06-01T23:48:08.183Z,23.73
2019-06-01T23:50:37.664Z,24.57
2019-06-01T23:53:13.729Z,24.12
2019-06-01T23:55:38.038Z,24.32
2019-06-01T23:58:07.358Z,25.95
